createdAt,value
2022-11-05T00:00:05.979Z,6.33
2022-11-05T00:02:51.317Z,7.47
2022-11-05T00:05:36.815Z,8.10
2022-11-05T00:08:23.865Z,10.00
2022-11-05T00:10:51.918Z,7.07
2022-11-05T00:13:38.772Z,7.77
2022-11-05T00:16:24.183Z,8.13
2022-11-05T00:19:06.080Z,8.73
2022-11-05T00:21:51.784Z,9.60
2022-11-05T00:24:37.348Z,6.17
2022-11-05T00:27:05.596Z,8.70
2022-11-05T00:29:35.280Z,6.53
2022-11-05T00:32:03.404Z,9.37
2022-11-05T00:34:31.448Z,6.97
2022-11-05T00:36:59.449Z,7.13
2022-11-05T00:39:27.460Z,8.33
2022-11-05T00:42:09.360Z,8.40
2022-11-05T00:44:56.043Z,8.57
2022-11-05T00:47:41.557Z,9.20
2022-11-05T00:50:10.850Z,6.73
2022-11-05T00:53:07.623Z,7.73
2022-11-05T00:55:38.995Z,7.40
2022-11-05T00:58:09.148Z,10.20
2022-11-05T01:00:40.047Z,7.70
2022-11-05T01:03:11.002Z,7.40
2022-11-05T01:05:44.158Z,7.23
2022-11-05T01:08:12.619Z,12.47
2022-11-05T01:10:44.387Z,6.83
2022-11-05T01:13:14.219Z,9.40
2022-11-05T01:15:44.109Z,9.37
2022-11-05T01:18:12.439Z,7.20
2022-11-05T01:20:40.952Z,12.00
2022-11-05T01:23:13.484Z,8.07
2022-11-05T01:25:42.069Z,8.87
2022-11-05T01:28:10.835Z,7.73
2022-11-05T01:30:39.493Z,7.23
2022-11-05T01:33:09.365Z,9.70
2022-11-05T01:35:37.555Z,5.47
2022-11-05T01:38:05.615Z,6.93
2022-11-05T01:40:33.674Z,8.37
2022-11-05T01:43:01.689Z,9.03
2022-11-05T01:45:30.159Z,8.83
2022-11-05T01:48:07.920Z,11.40
2022-11-05T01:50:47.349Z,8.73
2022-11-05T01:53:23.527Z,10.97
2022-11-05T01:55:58.557Z,9.57
2022-11-05T01:58:31.615Z,9.90
2022-11-05T02:01:00.040Z,11.30
2022-11-05T02:03:29.395Z,9.00
2022-11-05T02:06:01.098Z,12.17
2022-11-05T02:08:42.663Z,11.20
2022-11-05T02:11:12.080Z,10.80
2022-11-05T02:13:40.135Z,10.97
2022-11-05T02:16:16.804Z,9.27
2022-11-05T02:18:54.181Z,7.40
2022-11-05T02:22:15.749Z,11.80
2022-11-05T02:25:05.482Z,10.97
2022-11-05T02:28:01.914Z,7.93
2022-11-05T02:30:47.609Z,10.00
2022-11-05T02:33:36.288Z,12.13
2022-11-05T02:36:27.036Z,11.37
2022-11-05T02:39:09.470Z,7.97
2022-11-05T02:41:44.777Z,10.87
2022-11-05T02:44:20.705Z,6.43
2022-11-05T02:46:57.752Z,5.80
2022-11-05T02:49:33.585Z,9.77
2022-11-05T02:52:07.332Z,8.03
2022-11-05T02:54:39.477Z,9.17
2022-11-05T02:57:07.982Z,7.23
2022-11-05T02:59:36.026Z,7.40
2022-11-05T03:02:07.024Z,7.47
2022-11-05T03:04:35.168Z,7.30
2022-11-05T03:07:19.972Z,7.20
2022-11-05T03:10:10.445Z,8.40
2022-11-05T03:12:52.460Z,7.97
2022-11-05T03:15:34.590Z,8.80
2022-11-05T03:18:12.521Z,10.93
2022-11-05T03:20:47.341Z,6.23
2022-11-05T03:23:24.371Z,6.93
2022-11-05T03:25:57.366Z,6.83
2022-11-05T03:28:28.232Z,8.47
2022-11-05T03:30:59.272Z,7.23
2022-11-05T03:33:33.200Z,10.10
2022-11-05T03:36:06.759Z,9.97
2022-11-05T03:38:38.354Z,10.17
2022-11-05T03:41:10.889Z,7.33
2022-11-05T03:43:42.855Z,9.13
2022-11-05T03:46:13.117Z,9.93
2022-11-05T03:48:48.287Z,13.70
2022-11-05T03:51:25.380Z,9.63
2022-11-05T03:53:57.513Z,10.30
2022-11-05T03:56:31.560Z,9.37
2022-11-05T03:59:02.312Z,7.93
2022-11-05T04:01:32.135Z,7.70
2022-11-05T04:04:01.572Z,10.13
2022-11-05T04:06:47.017Z,10.07
2022-11-05T04:09:47.079Z,8.17
2022-11-05T04:12:32.601Z,6.77
2022-11-05T04:15:00.609Z,8.40
2022-11-05T04:17:27.619Z,9.10
2022-11-05T04:20:14.566Z,8.20
2022-11-05T04:23:00.190Z,8.50
2022-11-05T04:25:28.245Z,7.07
2022-11-05T04:27:59.848Z,7.87
2022-11-05T04:30:26.952Z,8.43
2022-11-05T04:33:03.190Z,6.53
2022-11-05T04:35:35.149Z,9.30
2022-11-05T04:38:04.598Z,7.57
2022-11-05T04:40:32.671Z,7.07
2022-11-05T04:43:00.826Z,8.40
2022-11-05T04:45:30.404Z,8.60
2022-11-05T04:47:59.451Z,7.13
2022-11-05T04:50:27.913Z,9.30
2022-11-05T04:52:57.330Z,9.03
2022-11-05T04:55:25.510Z,6.40
2022-11-05T04:57:54.891Z,7.13
2022-11-05T05:00:24.650Z,5.17
2022-11-05T05:02:52.869Z,6.83
2022-11-05T05:05:21.958Z,8.53
2022-11-05T05:07:49.987Z,4.77
2022-11-05T05:10:19.556Z,7.20
2022-11-05T05:12:48.417Z,8.70
2022-11-05T05:15:16.872Z,6.37
2022-11-05T05:17:44.873Z,5.87
2022-11-05T05:20:30.436Z,8.00
2022-11-05T05:22:58.404Z,6.27
2022-11-05T05:25:27.888Z,8.27
2022-11-05T05:27:57.844Z,5.80
2022-11-05T05:30:26.504Z,7.60
2022-11-05T05:32:54.495Z,8.40
2022-11-05T05:35:22.488Z,6.17
2022-11-05T05:37:50.460Z,7.43
2022-11-05T05:40:18.651Z,9.07
2022-11-05T05:42:48.007Z,4.93
2022-11-05T05:45:16.059Z,7.17
2022-11-05T05:47:44.115Z,7.23
2022-11-05T05:50:12.171Z,9.00
2022-11-05T05:52:40.191Z,8.40
2022-11-05T05:55:12.469Z,7.60
2022-11-05T05:57:40.604Z,12.23
2022-11-05T06:00:11.718Z,8.17
2022-11-05T06:02:40.001Z,7.63
2022-11-05T06:05:08.716Z,9.07
2022-11-05T06:07:37.590Z,5.00
2022-11-05T06:10:06.596Z,6.40
2022-11-05T06:12:34.690Z,8.90
2022-11-05T06:15:02.703Z,6.90
2022-11-05T06:17:33.743Z,9.67
2022-11-05T06:20:01.713Z,6.80
2022-11-05T06:22:29.833Z,8.57
2022-11-05T06:24:57.853Z,7.30
2022-11-05T06:27:25.854Z,9.00
2022-11-05T06:29:53.838Z,7.50
2022-11-05T06:32:21.852Z,9.43
2022-11-05T06:34:51.205Z,6.53
2022-11-05T06:37:19.219Z,8.83
2022-11-05T06:39:47.253Z,10.07
2022-11-05T06:42:19.266Z,7.13
2022-11-05T06:44:48.016Z,8.73
2022-11-05T06:47:16.087Z,5.93
2022-11-05T06:49:44.152Z,6.67
2022-11-05T06:52:14.161Z,6.80
2022-11-05T06:54:43.876Z,8.20
2022-11-05T06:57:13.085Z,8.70
2022-11-05T06:59:41.219Z,8.53
2022-11-05T07:02:13.214Z,9.73
2022-11-05T07:04:41.408Z,6.13
2022-11-05T07:07:09.461Z,6.43
2022-11-05T07:09:42.499Z,9.60
2022-11-05T07:12:10.724Z,7.53
2022-11-05T07:14:38.711Z,9.93
2022-11-05T07:17:06.709Z,7.77
2022-11-05T07:19:34.794Z,7.17
2022-11-05T07:22:02.855Z,8.37
2022-11-05T07:24:30.829Z,7.17
2022-11-05T07:27:00.220Z,7.63
2022-11-05T07:29:28.176Z,7.00
2022-11-05T07:31:56.164Z,7.50
2022-11-05T07:34:24.169Z,7.63
2022-11-05T07:36:52.188Z,5.07
2022-11-05T07:39:20.204Z,9.90
2022-11-05T07:41:48.187Z,4.90
2022-11-05T07:44:17.763Z,8.77
2022-11-05T07:46:45.751Z,5.03
2022-11-05T07:49:14.012Z,8.03
2022-11-05T07:51:42.039Z,8.17
2022-11-05T07:54:10.199Z,7.50
2022-11-05T07:56:38.421Z,5.93
2022-11-05T07:59:06.744Z,7.40
2022-11-05T08:01:36.269Z,5.17
2022-11-05T08:04:04.616Z,5.27
2022-11-05T08:06:32.901Z,5.40
2022-11-05T08:09:00.984Z,6.37
2022-11-05T08:11:28.997Z,11.30
2022-11-05T08:13:56.972Z,7.17
2022-11-05T08:16:25.011Z,7.07
2022-11-05T08:18:54.332Z,5.60
2022-11-05T08:21:22.379Z,6.63
2022-11-05T08:23:50.395Z,5.93
2022-11-05T08:26:19.469Z,6.70
2022-11-05T08:28:47.462Z,7.80
2022-11-05T08:31:17.761Z,6.90
2022-11-05T08:33:45.935Z,6.20
2022-11-05T08:36:15.379Z,4.83
2022-11-05T08:38:43.368Z,3.57
2022-11-05T08:41:11.376Z,7.70
2022-11-05T08:43:39.388Z,4.77
2022-11-05T08:46:07.781Z,6.47
2022-11-05T08:48:35.901Z,5.27
2022-11-05T08:51:04.097Z,6.30
2022-11-05T08:53:33.541Z,6.43
2022-11-05T08:56:02.811Z,7.43
2022-11-05T08:58:32.517Z,4.87
2022-11-05T09:01:05.067Z,5.67
2022-11-05T09:03:33.641Z,4.63
2022-11-05T09:06:01.852Z,6.23
2022-11-05T09:08:29.997Z,6.60
2022-11-05T09:10:59.432Z,9.10
2022-11-05T09:13:28.060Z,5.53
2022-11-05T09:15:56.414Z,7.87
2022-11-05T09:18:24.525Z,6.73
2022-11-05T09:20:52.680Z,5.23
2022-11-05T09:23:20.700Z,4.77
2022-11-05T09:25:48.850Z,7.47
2022-11-05T09:28:20.275Z,4.33
2022-11-05T09:30:49.819Z,6.50
2022-11-05T09:33:18.909Z,6.30
2022-11-05T09:35:47.287Z,5.70
2022-11-05T09:38:15.472Z,5.93
2022-11-05T09:40:53.658Z,6.07
2022-11-05T09:43:31.289Z,4.83
2022-11-05T09:46:04.009Z,4.27
2022-11-05T09:48:33.991Z,4.03
2022-11-05T09:51:02.298Z,4.83
2022-11-05T09:53:30.372Z,5.67
2022-11-05T09:56:01.257Z,4.30
2022-11-05T09:58:38.851Z,6.90
2022-11-05T10:01:12.966Z,3.90
2022-11-05T10:03:47.503Z,3.63
2022-11-05T10:06:20.968Z,5.23
2022-11-05T10:08:53.516Z,4.60
2022-11-05T10:11:25.006Z,9.73
2022-11-05T10:13:59.683Z,5.03
2022-11-05T10:16:31.283Z,3.73
2022-11-05T10:19:03.556Z,4.67
2022-11-05T10:22:04.237Z,3.50
2022-11-05T10:24:21.581Z,3.57
2022-11-05T10:26:52.472Z,5.07
2022-11-05T10:29:27.515Z,9.03
2022-11-05T10:31:57.111Z,4.50
2022-11-05T10:34:29.621Z,4.80
2022-11-05T10:36:57.825Z,7.60
2022-11-05T10:39:27.671Z,4.83
2022-11-05T10:42:17.643Z,4.43
2022-11-05T10:44:54.276Z,5.10
2022-11-05T10:47:50.000Z,6.60
2022-11-05T10:50:21.252Z,4.70
2022-11-05T10:52:58.925Z,4.93
2022-11-05T10:55:29.472Z,10.10
2022-11-05T10:58:09.716Z,7.10
2022-11-05T11:00:39.308Z,6.83
2022-11-05T11:03:30.019Z,3.47
2022-11-05T11:06:00.864Z,4.80
2022-11-05T11:08:29.546Z,6.40
2022-11-05T11:10:59.899Z,3.80
2022-11-05T11:13:29.668Z,4.83
2022-11-05T11:16:15.888Z,3.57
2022-11-05T11:18:44.956Z,5.77
2022-11-05T11:21:16.057Z,4.33
2022-11-05T11:23:54.006Z,6.20
2022-11-05T11:26:22.794Z,6.03
2022-11-05T11:28:55.355Z,5.73
2022-11-05T11:31:26.851Z,8.27
2022-11-05T11:34:01.247Z,7.27
2022-11-05T11:36:35.202Z,3.43
2022-11-05T11:39:05.703Z,7.23
2022-11-05T11:41:37.557Z,5.37
2022-11-05T11:44:09.407Z,6.30
2022-11-05T11:46:39.132Z,3.97
2022-11-05T11:49:08.058Z,4.90
2022-11-05T11:51:40.656Z,4.60
2022-11-05T11:54:21.059Z,6.60
2022-11-05T11:56:50.072Z,5.70
2022-11-05T11:59:46.671Z,5.30
2022-11-05T12:02:40.532Z,5.67
2022-11-05T12:05:19.781Z,5.63
2022-11-05T12:07:52.999Z,6.03
2022-11-05T12:10:29.400Z,4.00
2022-11-05T12:13:27.245Z,8.77
2022-11-05T12:15:57.663Z,5.90
2022-11-05T12:18:36.281Z,4.73
2022-11-05T12:21:15.352Z,2.83
2022-11-05T12:24:04.369Z,5.23
2022-11-05T12:26:44.261Z,3.87
2022-11-05T12:29:35.590Z,7.17
2022-11-05T12:32:24.478Z,4.30
2022-11-05T12:35:00.425Z,5.37
2022-11-05T12:37:34.886Z,5.83
2022-11-05T12:40:15.725Z,4.27
2022-11-05T12:42:54.485Z,4.27
2022-11-05T12:45:36.747Z,4.43
2022-11-05T12:48:23.365Z,4.93
2022-11-05T12:51:05.516Z,4.20
2022-11-05T12:53:48.629Z,5.50
2022-11-05T12:56:21.156Z,4.77
2022-11-05T12:58:55.677Z,6.20
2022-11-05T13:01:27.891Z,3.87
2022-11-05T13:03:59.905Z,4.07
2022-11-05T13:06:35.023Z,4.63
2022-11-05T13:09:08.211Z,7.83
2022-11-05T13:11:40.921Z,6.90
2022-11-05T13:14:14.788Z,5.00
2022-11-05T13:16:47.340Z,5.87
2022-11-05T13:19:21.259Z,7.13
2022-11-05T13:21:54.908Z,6.37
2022-11-05T13:24:27.296Z,5.60
2022-11-05T13:27:01.712Z,5.43
2022-11-05T13:29:35.212Z,6.33
2022-11-05T13:32:12.052Z,4.80
2022-11-05T13:34:40.636Z,8.47
2022-11-05T13:37:28.904Z,5.93
2022-11-05T13:39:59.265Z,7.23
2022-11-05T13:43:02.020Z,5.30
2022-11-05T13:46:04.564Z,5.33
2022-11-05T13:49:05.153Z,4.83
2022-11-05T13:51:53.061Z,4.10
2022-11-05T13:54:49.775Z,5.53
2022-11-05T13:57:38.471Z,7.23
2022-11-05T14:00:16.776Z,5.33
2022-11-05T14:02:49.952Z,4.23
2022-11-05T14:05:29.461Z,2.63
2022-11-05T14:08:00.000Z,3.47
2022-11-05T14:10:36.098Z,3.83
2022-11-05T14:13:16.288Z,2.37
2022-11-05T14:15:58.417Z,5.93
2022-11-05T14:18:44.686Z,4.90
2022-11-05T14:21:47.180Z,3.87
2022-11-05T14:24:43.301Z,3.73
2022-11-05T14:27:43.427Z,4.80
2022-11-05T14:30:45.582Z,3.87
2022-11-05T14:33:17.919Z,4.30
2022-11-05T14:35:46.008Z,4.53
2022-11-05T14:38:21.813Z,4.20
2022-11-05T14:40:50.592Z,3.90
2022-11-05T14:43:24.489Z,4.57
2022-11-05T14:45:58.671Z,2.20
2022-11-05T14:48:37.472Z,4.03
2022-11-05T14:51:25.725Z,3.27
2022-11-05T14:54:02.159Z,4.00
2022-11-05T14:56:32.523Z,3.47
2022-11-05T14:59:36.463Z,4.97
2022-11-05T15:02:10.289Z,6.57
2022-11-05T15:04:40.531Z,7.70
2022-11-05T15:07:32.902Z,12.53
2022-11-05T15:10:10.252Z,10.07
2022-11-05T15:12:42.969Z,12.67
2022-11-05T15:15:22.444Z,9.60
2022-11-05T15:18:00.599Z,11.07
2022-11-05T15:20:39.796Z,9.20
2022-11-05T15:23:13.664Z,9.13
2022-11-05T15:25:52.731Z,7.93
2022-11-05T15:28:28.016Z,10.60
2022-11-05T15:31:00.097Z,10.73
2022-11-05T15:33:28.441Z,8.47
2022-11-05T15:35:57.288Z,7.57
2022-11-05T15:38:31.457Z,8.73
2022-11-05T15:41:04.347Z,7.43
2022-11-05T15:43:32.415Z,7.77
2022-11-05T15:46:15.076Z,8.40
2022-11-05T15:48:46.940Z,8.47
2022-11-05T15:51:15.132Z,6.20
2022-11-05T15:56:50.622Z,5.87
2022-11-05T15:59:20.654Z,5.83
2022-11-05T16:01:53.042Z,6.07
2022-11-05T16:04:23.119Z,9.37
2022-11-05T16:06:53.435Z,5.47
2022-11-05T16:09:24.072Z,6.27
2022-11-05T16:12:10.151Z,6.37
2022-11-05T16:14:38.438Z,6.00
2022-11-05T16:17:19.827Z,5.60
2022-11-05T16:19:48.977Z,6.90
2022-11-05T16:22:17.617Z,6.30
2022-11-05T16:24:45.916Z,6.00
2022-11-05T16:27:19.429Z,8.50
2022-11-05T16:29:51.240Z,4.83
2022-11-05T16:32:29.831Z,7.07
2022-11-05T16:35:01.039Z,8.60
2022-11-05T16:37:32.505Z,7.63
2022-11-05T16:40:01.830Z,12.70
2022-11-05T16:42:40.951Z,8.13
2022-11-05T16:45:12.661Z,11.00
2022-11-05T16:47:42.623Z,11.43
2022-11-05T16:50:23.048Z,11.87
2022-11-05T16:52:51.750Z,10.40
2022-11-05T16:55:20.165Z,9.20
2022-11-05T16:57:52.110Z,6.63
2022-11-05T17:00:21.664Z,8.17
2022-11-05T17:02:51.522Z,7.00
2022-11-05T17:05:22.982Z,6.73
2022-11-05T17:07:51.483Z,9.40
2022-11-05T17:10:19.861Z,10.27
2022-11-05T17:12:48.757Z,6.07
2022-11-05T17:15:25.591Z,6.47
2022-11-05T17:17:55.527Z,7.63
2022-11-05T17:20:40.268Z,7.67
2022-11-05T17:23:10.260Z,7.30
2022-11-05T17:25:39.124Z,7.10
2022-11-05T17:28:07.492Z,7.17
2022-11-05T17:30:35.596Z,9.73
2022-11-05T17:33:05.376Z,7.27
2022-11-05T17:35:33.548Z,7.07
2022-11-05T17:38:01.636Z,7.10
2022-11-05T17:40:30.379Z,6.77
2022-11-05T17:42:58.599Z,8.43
2022-11-05T17:45:26.665Z,10.67
2022-11-05T17:47:54.825Z,9.07
2022-11-05T17:50:24.309Z,7.33
2022-11-05T17:52:52.348Z,7.40
2022-11-05T17:55:20.416Z,8.47
2022-11-05T17:57:50.928Z,9.47
2022-11-05T18:00:25.302Z,9.27
2022-11-05T18:02:54.544Z,8.50
2022-11-05T18:05:27.584Z,9.30
2022-11-05T18:07:56.556Z,7.80
2022-11-05T18:10:25.406Z,8.77
2022-11-05T18:12:53.884Z,10.67
2022-11-05T18:15:22.045Z,8.57
2022-11-05T18:17:50.164Z,11.47
2022-11-05T18:20:19.665Z,11.27
2022-11-05T18:22:50.668Z,9.07
2022-11-05T18:25:19.440Z,12.37
2022-11-05T18:27:47.459Z,9.83
2022-11-05T18:30:15.919Z,10.20
2022-11-05T18:32:44.833Z,9.57
2022-11-05T18:35:14.526Z,10.63
2022-11-05T18:37:42.722Z,8.20
2022-11-05T18:40:13.073Z,11.80
2022-11-05T18:42:41.281Z,12.60
2022-11-05T18:45:11.102Z,8.27
2022-11-05T18:47:39.426Z,9.30
2022-11-05T18:50:09.330Z,14.53
2022-11-05T18:52:37.624Z,14.30
2022-11-05T18:55:06.582Z,11.93
2022-11-05T18:57:35.975Z,12.63
2022-11-05T19:00:05.162Z,10.90
2022-11-05T19:02:33.334Z,11.03
2022-11-05T19:07:49.478Z,9.10
2022-11-05T19:10:18.161Z,9.30
2022-11-05T19:12:47.576Z,9.97
2022-11-05T19:15:15.887Z,7.70
2022-11-05T19:17:43.965Z,10.13
2022-11-05T19:20:12.560Z,9.97
2022-11-05T19:22:40.573Z,9.03
2022-11-05T19:25:09.256Z,8.63
2022-11-05T19:27:37.608Z,9.23
2022-11-05T19:30:07.792Z,10.67
2022-11-05T19:32:35.962Z,11.17
2022-11-05T19:35:04.159Z,9.67
2022-11-05T19:37:32.282Z,9.70
2022-11-05T19:40:00.386Z,10.17
2022-11-05T19:42:28.451Z,9.63
2022-11-05T19:44:57.008Z,9.60
2022-11-05T19:47:29.726Z,9.57
2022-11-05T19:49:57.783Z,10.20
2022-11-05T19:52:25.832Z,10.47
2022-11-05T19:54:53.873Z,10.13
2022-11-05T19:57:21.891Z,12.03
2022-11-05T19:59:50.497Z,12.37
2022-11-05T20:02:18.734Z,10.53
2022-11-05T20:04:50.560Z,7.73
2022-11-05T20:07:18.603Z,11.30
2022-11-05T20:09:46.614Z,11.73
2022-11-05T20:12:14.676Z,9.17
2022-11-05T20:14:42.689Z,13.90
2022-11-05T20:17:10.708Z,11.03
2022-11-05T20:19:38.722Z,8.23
2022-11-05T20:22:08.060Z,9.77
2022-11-05T20:24:36.220Z,9.70
2022-11-05T20:27:04.331Z,10.50
2022-11-05T20:29:35.675Z,9.13
2022-11-05T20:32:05.167Z,8.83
2022-11-05T20:34:34.928Z,13.97
2022-11-05T20:37:02.996Z,10.60
2022-11-05T20:39:32.399Z,10.20
2022-11-05T20:42:01.384Z,12.53
2022-11-05T20:44:29.464Z,10.70
2022-11-05T20:46:57.581Z,11.97
2022-11-05T20:49:26.134Z,11.13
2022-11-05T20:51:54.631Z,14.90
2022-11-05T20:54:22.698Z,11.20
2022-11-05T20:56:52.133Z,11.77
2022-11-05T20:59:20.600Z,13.07
2022-11-05T21:01:48.713Z,11.33
2022-11-05T21:04:16.846Z,10.27
2022-11-05T21:06:44.988Z,10.17
2022-11-05T21:09:13.192Z,11.40
2022-11-05T21:11:58.789Z,12.23
2022-11-05T21:14:28.159Z,11.23
2022-11-05T21:16:56.172Z,12.50
2022-11-05T21:19:24.417Z,14.33
2022-11-05T21:21:52.409Z,13.60
2022-11-05T21:24:20.496Z,11.93
2022-11-05T21:26:49.860Z,11.10
2022-11-05T21:29:18.300Z,12.83
2022-11-05T21:31:47.978Z,11.67
2022-11-05T21:34:16.793Z,12.17
2022-11-05T21:36:45.127Z,13.30
2022-11-05T21:39:13.945Z,12.77
2022-11-05T21:41:42.592Z,11.70
2022-11-05T21:44:10.741Z,12.10
2022-11-05T21:46:38.824Z,12.70
2022-11-05T21:49:09.442Z,12.00
2022-11-05T21:51:55.072Z,12.83
2022-11-05T21:54:40.791Z,10.50
2022-11-05T21:57:32.813Z,12.70
2022-11-05T22:00:01.673Z,12.90
2022-11-05T22:02:32.670Z,12.50
2022-11-05T22:05:03.141Z,16.30
2022-11-05T22:07:34.444Z,12.50
2022-11-05T22:10:02.814Z,13.50
2022-11-05T22:12:32.252Z,12.07
2022-11-05T22:15:00.237Z,14.80
2022-11-05T22:17:28.291Z,11.70
2022-11-05T22:19:56.343Z,12.23
2022-11-05T22:22:25.771Z,13.07
2022-11-05T22:24:53.780Z,13.70
2022-11-05T22:27:22.878Z,13.63
2022-11-05T22:29:50.878Z,12.07
2022-11-05T22:32:20.237Z,13.03
2022-11-05T22:34:50.757Z,11.73
2022-11-05T22:37:19.083Z,11.17
2022-11-05T22:39:48.415Z,14.60
2022-11-05T22:42:16.434Z,12.03
2022-11-05T22:44:44.572Z,11.77
2022-11-05T22:47:14.018Z,13.07
2022-11-05T22:49:42.288Z,12.00
2022-11-05T22:52:10.285Z,12.20
2022-11-05T22:54:39.590Z,12.70
2022-11-05T22:57:09.160Z,10.20
2022-11-05T22:59:37.207Z,11.67
2022-11-05T23:02:09.613Z,13.37
2022-11-05T23:04:39.078Z,10.60
2022-11-05T23:07:27.805Z,11.83
2022-11-05T23:10:14.211Z,10.27
2022-11-05T23:12:44.525Z,10.37
2022-11-05T23:15:34.328Z,10.47
2022-11-05T23:18:19.932Z,9.80
2022-11-05T23:21:05.517Z,10.43
2022-11-05T23:23:51.113Z,9.97
2022-11-05T23:26:45.117Z,11.83
2022-11-05T23:29:14.584Z,9.87
2022-11-05T23:32:00.269Z,10.00
2022-11-05T23:34:29.529Z,9.33
2022-11-05T23:37:14.860Z,10.57
2022-11-05T23:39:43.157Z,8.90
2022-11-05T23:42:29.223Z,8.83
2022-11-05T23:45:16.359Z,11.77
2022-11-05T23:48:02.193Z,9.00
2022-11-05T23:50:34.463Z,11.40
2022-11-05T23:53:06.598Z,8.87
2022-11-05T23:55:34.622Z,8.70
2022-11-05T23:58:02.692Z,10.63
